Time;durP1;ratioP1;P1;durP2;ratioP2;P2;SDS_P1;SDS_P2;PMS_P1;PMS_P2;Temp;Humidity;BMP_temperature;BMP_pressure;BME280_temperature;BME280_humidity;BME280_pressure;Samples;Min_cycle;Max_cycle;Signal;HPM_P1;HPM_P2
2023/07/12 00:30:29;;;;;;;9.30;6.00;;;;;;;14.12;66.22;97164.14;105320;1266;95914;-77
2023/07/12 00:33:36;;;;;;;10.20;6.30;;;;;;;13.98;66.45;97158.60;106051;1259;95842;-73
2023/07/12 00:36:49;;;;;;;9.50;6.40;;;;;;;13.94;66.78;97153.84;104734;1272;99772;-75
2023/07/12 00:39:55;;;;;;;9.10;6.60;;;;;;;13.81;67.03;97153.48;105087;1266;100289;-75
2023/07/12 00:43:05;;;;;;;10.60;6.40;;;;;;;13.64;67.22;97152.24;104614;1275;98859;-73
2023/07/12 00:45:59;;;;;;;8.20;5.90;;;;;;;13.55;67.62;97152.91;104214;1278;96325;-77
2023/07/12 01:01:35;;;;;;;9.50;6.80;;;;;;;13.44;68.08;97148.04;101446;1298;642145;-80
2023/07/12 01:04:36;;;;;;;8.70;6.10;;;;;;;13.42;68.34;97139.66;104378;1263;95994;-76
2023/07/12 01:07:34;;;;;;;9.30;6.30;;;;;;;13.44;68.44;97134.92;103750;1274;96123;-78
2023/07/12 01:10:42;;;;;;;8.60;6.90;;;;;;;13.39;68.55;97129.39;103750;1274;98952;-78
2023/07/12 01:13:52;;;;;;;9.60;6.30;;;;;;;13.25;68.66;97119.73;102813;1277;5352327;-78
2023/07/12 01:29:54;;;;;;;6.60;5.90;;;;;;;13.22;68.83;97107.19;101572;1298;635929;-72
2023/07/12 01:32:55;;;;;;;8.90;6.20;;;;;;;13.21;69.05;97106.63;104350;1273;95856;-72
2023/07/12 01:35:51;;;;;;;8.80;6.50;;;;;;;13.25;69.11;97101.90;104079;1271;96119;-74
2023/07/12 01:39:00;;;;;;;9.20;5.80;;;;;;;13.21;69.16;97099.96;103663;1274;98584;-73
2023/07/12 01:41:55;;;;;;;10.70;5.90;;;;;;;13.07;69.30;97096.17;103154;1282;100084;-73
2023/07/12 01:45:04;;;;;;;8.70;6.60;;;;;;;13.00;69.47;97096.29;99007;1287;100766;-75
2023/07/12 01:57:52;;;;;;;9.90;6.40;;;;;;;12.89;69.81;97090.48;101583;1295;636092;-80
2023/07/12 02:00:43;;;;;;;10.20;6.00;;;;;;;12.91;70.03;97093.77;104828;1258;95944;-79
2023/07/12 02:03:42;;;;;;;7.80;5.70;;;;;;;12.95;70.06;97090.99;104935;1258;95857;-77
2023/07/12 02:06:50;;;;;;;6.90;5.80;;;;;;;12.98;70.02;97082.20;104746;1260;98624;-78
2023/07/12 02:09:58;;;;;;;8.00;6.20;;;;;;;13.01;70.02;97085.95;104695;1260;100006;-78
2023/07/12 02:13:06;;;;;;;7.50;6.00;;;;;;;13.00;69.99;97079.17;99840;1277;108370;-78
2023/07/12 02:16:16;;;;;;;7.30;5.70;;;;;;;12.88;70.07;97068.77;103192;1283;96181;-80
2023/07/12 02:46:56;;;;;;;11.10;6.30;;;;;;;12.83;70.34;97061.36;101417;1297;635728;-77
2023/07/12 02:49:55;;;;;;;10.80;6.20;;;;;;;12.74;70.49;97059.77;102220;1306;96789;-77
2023/07/12 02:53:03;;;;;;;6.40;4.90;;;;;;;12.63;70.72;97059.98;101829;1291;97307;-78
2023/07/12 02:56:12;;;;;;;7.00;5.30;;;;;;;12.60;70.94;97058.56;101851;1295;98459;-76
2023/07/12 03:04:21;;;;;;;7.60;5.80;;;;;;;12.55;71.24;97043.66;102523;1292;636674;-82
2023/07/12 03:06:50;;;;;;;7.50;5.90;;;;;;;12.55;71.37;97035.38;104475;1272;96812;-82
2023/07/12 03:09:17;;;;;;;7.20;5.70;;;;;;;12.55;71.43;97028.02;104380;1273;95903;-83
2023/07/12 03:11:47;;;;;;;7.00;6.00;;;;;;;12.55;71.55;97030.33;104406;1289;100338;-83
2023/07/12 03:14:20;;;;;;;9.90;6.00;;;;;;;12.52;71.61;97032.21;104674;1273;102117;-82
2023/07/12 03:16:48;;;;;;;11.60;6.40;;;;;;;12.51;71.68;97027.93;104503;1263;116638;-81
2023/07/12 03:19:17;;;;;;;8.40;6.00;;;;;;;12.55;71.75;97021.45;104732;1263;95890;-81
2023/07/12 03:24:16;;;;;;;12.60;6.60;;;;;;;12.62;71.82;97014.20;101713;1292;641414;-76
2023/07/12 03:27:16;;;;;;;8.20;6.20;;;;;;;12.59;71.97;97015.34;103857;1272;96926;-77
2023/07/12 03:30:23;;;;;;;9.60;5.90;;;;;;;12.61;72.01;97023.02;103141;1281;96128;-77
2023/07/12 03:33:32;;;;;;;11.20;5.80;;;;;;;12.66;72.11;97025.04;101873;1296;98490;-78
2023/07/12 03:36:24;;;;;;;7.20;5.90;;;;;;;12.68;72.18;97024.54;99655;1293;2724786;-76
2023/07/12 03:40:43;;;;;;;6.80;6.10;;;;;;;12.74;71.92;97029.88;101483;1305;638889;-77
2023/07/12 03:43:56;;;;;;;7.90;5.90;;;;;;;12.77;72.13;97026.02;103542;1277;97443;-78
2023/07/12 03:46:30;;;;;;;9.50;5.90;;;;;;;12.77;72.20;97019.55;102478;1287;96009;-77
2023/07/12 03:49:10;;;;;;;8.80;6.40;;;;;;;12.80;72.18;97023.25;102098;1300;98551;-80
2023/07/12 03:52:20;;;;;;;8.60;6.10;;;;;;;12.85;72.37;97025.96;102210;1289;100335;-79
2023/07/12 04:05:36;;;;;;;12.60;7.90;;;;;;;13.13;72.11;97009.66;101213;1301;649134;-76
2023/07/12 04:08:43;;;;;;;14.80;10.30;;;;;;;13.19;72.39;97008.19;102647;1289;96076;-81
2023/07/12 04:11:43;;;;;;;21.10;12.30;;;;;;;13.24;72.66;97004.20;101960;1297;95912;-79
2023/07/12 04:14:50;;;;;;;15.70;11.30;;;;;;;13.30;72.68;96997.01;101989;1292;98636;-77
2023/07/12 04:17:57;;;;;;;17.20;10.90;;;;;;;13.38;72.74;96992.02;97810;1298;5373609;-78
2023/07/12 04:20:58;;;;;;;21.70;12.40;;;;;;;13.45;72.65;96989.83;101339;1298;95841;-77
2023/07/12 04:23:48;;;;;;;16.00;11.50;;;;;;;13.54;72.66;96989.98;101432;1303;97420;-79
2023/07/12 04:54:35;;;;;;;12.40;6.80;;;;;;;14.94;72.21;96982.86;101589;1291;636010;-75
2023/07/12 04:57:44;;;;;;;9.60;7.30;;;;;;;15.05;72.19;96976.23;103208;1283;96360;-74
2023/07/12 05:04:33;;;;;;;9.80;6.50;;;;;;;15.42;72.09;96967.56;101307;1298;639424;-73
2023/07/12 05:07:42;;;;;;;10.90;6.80;;;;;;;15.59;72.00;96962.67;102607;1290;95979;-74
2023/07/12 05:21:09;;;;;;;8.10;5.40;;;;;;;16.44;71.35;96948.42;101306;1296;637688;-74
2023/07/12 05:24:17;;;;;;;9.70;5.30;;;;;;;16.65;71.48;96950.57;102744;1287;96008;-75
2023/07/12 05:27:25;;;;;;;7.80;4.80;;;;;;;16.89;71.20;96939.85;102112;1295;96212;-75
2023/07/12 05:30:33;;;;;;;6.60;5.10;;;;;;;17.07;70.90;96928.58;101730;1300;99581;-74
2023/07/12 05:46:38;;;;;;;5.70;4.60;;;;;;;17.90;68.20;96922.33;101194;1297;638739;-73
2023/07/12 05:49:39;;;;;;;6.60;4.90;;;;;;;18.01;68.01;96919.61;102846;1287;97044;-73
2023/07/12 05:52:40;;;;;;;5.70;5.10;;;;;;;18.13;67.60;96926.69;102467;1290;95999;-73
2023/07/12 05:55:42;;;;;;;6.60;4.50;;;;;;;18.23;67.08;96929.86;102421;1286;98640;-73
2023/07/12 06:44:27;;;;;;;7.50;5.50;;;;;;;20.76;60.08;96905.35;105007;1268;98072;-81
2023/07/12 06:47:35;;;;;;;10.00;5.80;;;;;;;20.94;59.18;96899.23;105886;1259;99960;-82
2023/07/12 06:50:42;;;;;;;6.30;5.50;;;;;;;21.14;58.49;96887.30;104977;1269;99300;-79
2023/07/12 06:53:48;;;;;;;8.80;5.90;;;;;;;21.30;57.95;96880.45;104411;1272;96028;-80
2023/07/12 07:06:37;;;;;;;7.30;5.70;;;;;;;21.66;55.10;96863.95;101691;1295;642669;-77
2023/07/12 07:09:45;;;;;;;7.00;5.40;;;;;;;21.65;54.72;96861.88;104137;1270;97391;-78
2023/07/12 07:12:50;;;;;;;6.40;5.60;;;;;;;21.69;54.40;96860.08;103405;1281;96044;-77
2023/07/12 07:15:40;;;;;;;6.80;5.40;;;;;;;21.79;53.91;96859.44;103428;1292;107344;-78
2023/07/12 07:18:29;;;;;;;7.40;5.50;;;;;;;21.88;53.70;96854.80;103503;1300;100418;-71
2023/07/12 07:21:26;;;;;;;11.40;5.40;;;;;;;21.99;53.40;96853.73;103582;1272;428745;-72
2023/07/12 07:24:16;;;;;;;7.70;5.20;;;;;;;22.10;53.17;96854.66;103971;1277;97521;-74
2023/07/12 07:26:51;;;;;;;10.20;5.50;;;;;;;22.21;52.68;96856.63;103578;1280;97525;-74
2023/07/12 07:29:37;;;;;;;8.90;5.20;;;;;;;22.33;52.58;96855.17;103229;1294;99056;-72
2023/07/12 07:32:44;;;;;;;6.90;5.10;;;;;;;22.48;52.22;96855.92;103021;1283;100715;-73
2023/07/12 07:35:20;;;;;;;8.40;5.00;;;;;;;22.61;51.85;96850.75;102531;1286;99402;-73
2023/07/12 07:37:49;;;;;;;7.20;5.60;;;;;;;22.68;51.51;96843.83;102520;1286;96313;-72
2023/07/12 07:40:27;;;;;;;4.40;4.00;;;;;;;22.70;51.17;96836.86;102321;1292;97448;-77
2023/07/12 07:43:14;;;;;;;6.50;5.30;;;;;;;22.72;51.00;96834.21;102243;1292;100038;-73
2023/07/12 07:46:14;;;;;;;7.30;5.20;;;;;;;22.79;50.83;96838.46;102221;1292;100292;-74
2023/07/12 07:49:21;;;;;;;8.30;5.40;;;;;;;22.92;50.61;96841.80;102563;1280;100425;-71
2023/07/12 07:52:32;;;;;;;9.50;5.50;;;;;;;23.02;50.62;96840.68;103282;1283;96069;-73
2023/07/12 07:55:29;;;;;;;7.40;5.10;;;;;;;23.14;50.55;96843.30;102623;1285;97455;-70
2023/07/12 07:58:35;;;;;;;7.80;5.50;;;;;;;23.37;50.41;96847.02;102145;1302;99913;-72
2023/07/12 08:01:42;;;;;;;10.10;5.30;;;;;;;23.59;50.08;96845.31;102304;1289;100117;-69
2023/07/12 08:51:35;;;;;;;5.80;4.90;;;;;;;29.78;43.15;96768.73;105006;1270;98359;-73
2023/07/12 08:54:03;;;;;;;6.40;5.20;;;;;;;29.61;43.08;96770.95;106605;1252;100323;-75
2023/07/12 08:56:39;;;;;;;8.00;5.00;;;;;;;29.61;42.68;96772.42;106098;1260;98825;-72
2023/07/12 08:59:17;;;;;;;6.90;4.30;;;;;;;29.90;41.68;96776.90;106038;1255;96905;-73
2023/07/12 09:01:50;;;;;;;8.30;5.30;;;;;;;30.33;41.43;96778.60;106082;1254;96764;-75
2023/07/12 09:04:20;;;;;;;7.30;5.60;;;;;;;30.73;41.22;96774.79;106305;1256;99528;-82
2023/07/12 09:06:47;;;;;;;6.60;5.10;;;;;;;31.04;40.86;96778.17;106112;1254;99982;-75
2023/07/12 09:09:17;;;;;;;11.60;5.50;;;;;;;31.27;40.07;96784.67;106072;1253;97188;-75
2023/07/12 09:11:44;;;;;;;8.40;5.30;;;;;;;31.54;39.29;96779.27;106088;1254;96383;-75
2023/07/12 09:14:19;;;;;;;7.30;5.20;;;;;;;31.71;38.70;96773.56;105670;1263;96022;-75
2023/07/12 09:16:49;;;;;;;6.80;5.10;;;;;;;31.48;38.46;96769.02;105387;1274;99531;-79
2023/07/12 09:19:23;;;;;;;7.20;5.50;;;;;;;31.09;38.61;96765.27;105482;1261;100240;-75
2023/07/12 09:21:59;;;;;;;9.00;5.00;;;;;;;30.75;38.69;96754.70;104966;1269;97815;-75
2023/07/12 09:24:42;;;;;;;10.40;5.20;;;;;;;30.34;38.79;96757.55;105181;1269;96054;-75
2023/07/12 09:27:20;;;;;;;9.20;5.50;;;;;;;30.00;39.21;96755.77;105094;1266;96208;-75
2023/07/12 09:30:04;;;;;;;9.00;5.80;;;;;;;29.71;39.61;96755.44;105473;1263;99721;-76
2023/07/12 09:32:34;;;;;;;8.20;5.80;;;;;;;29.45;40.33;96752.95;104991;1279;100623;-75
2023/07/12 09:35:03;;;;;;;8.30;6.30;;;;;;;29.21;40.72;96757.14;105091;1267;98774;-75
2023/07/12 09:37:38;;;;;;;9.00;6.50;;;;;;;28.98;40.78;96752.88;104547;1279;96187;-75
2023/07/12 09:40:45;;;;;;;9.20;6.40;;;;;;;28.79;41.02;96753.91;104861;1273;95979;-75
2023/07/12 09:43:32;;;;;;;7.30;5.90;;;;;;;28.50;41.10;96761.98;104561;1275;100906;-75
2023/07/12 09:46:11;;;;;;;10.20;6.60;;;;;;;28.22;41.31;96771.83;104655;1273;100258;-76
2023/07/12 09:48:57;;;;;;;8.20;6.50;;;;;;;27.92;41.42;96781.85;105624;1257;99882;-75
2023/07/12 09:52:13;;;;;;;7.70;6.70;;;;;;;27.62;42.16;96791.48;105801;1259;95952;-79
2023/07/12 09:55:05;;;;;;;8.00;6.20;;;;;;;27.29;43.15;96804.36;106253;1256;96812;-76
2023/07/12 09:58:21;;;;;;;12.10;7.30;;;;;;;26.92;44.61;96819.59;106408;1248;100483;-76
2023/07/12 10:01:22;;;;;;;9.40;6.90;;;;;;;26.44;45.83;96808.92;106721;1263;100400;-74
2023/07/12 10:04:35;;;;;;;14.80;7.90;;;;;;;26.08;47.25;96808.88;106806;1250;99192;-75
2023/07/12 10:07:40;;;;;;;7.90;7.10;;;;;;;25.82;48.40;96809.03;106788;1244;96969;-74
2023/07/12 10:10:23;;;;;;;9.00;7.80;;;;;;;25.68;49.44;96815.05;107139;1248;97237;-74
2023/07/12 10:13:48;;;;;;;9.40;6.90;;;;;;;25.61;50.71;96814.70;106838;1252;100667;-74
2023/07/12 10:17:07;;;;;;;10.70;7.80;;;;;;;25.63;51.54;96811.71;106849;1244;100344;-75
2023/07/12 10:20:14;;;;;;;11.30;8.20;;;;;;;25.59;53.14;96809.95;105572;1266;98550;-75
2023/07/12 10:22:44;;;;;;;10.60;7.60;;;;;;;25.63;54.30;96803.66;105720;1264;97005;-77
2023/07/12 10:25:48;;;;;;;9.20;7.40;;;;;;;25.66;54.28;96797.37;105448;1266;96064;-75
2023/07/12 10:29:04;;;;;;;9.60;8.10;;;;;;;25.67;54.82;96790.28;105436;1270;99915;-76
2023/07/12 10:32:13;;;;;;;9.40;8.20;;;;;;;25.62;54.77;96789.67;105273;1274;100580;-74
2023/07/12 10:35:35;;;;;;;11.40;8.10;;;;;;;25.55;55.25;96783.43;105427;1265;98811;-77
2023/07/12 10:38:25;;;;;;;8.60;7.70;;;;;;;25.44;55.32;96786.66;105512;1263;95947;-75
2023/07/12 10:41:44;;;;;;;9.20;7.70;;;;;;;25.43;55.66;96787.25;105337;1272;96109;-75
2023/07/12 10:44:41;;;;;;;10.00;8.40;;;;;;;25.41;55.69;96777.19;104556;1277;99482;-76
2023/07/12 10:47:30;;;;;;;9.70;8.10;;;;;;;25.36;55.82;96773.94;104555;1281;100260;-76
2023/07/12 10:57:02;;;;;;;10.70;8.20;;;;;;;25.20;56.97;96763.08;103887;1285;96984;-77
2023/07/12 11:00:08;;;;;;;8.60;7.80;;;;;;;25.17;56.60;96771.12;104730;1274;99703;-77
2023/07/12 11:03:07;;;;;;;8.90;8.10;;;;;;;25.09;56.47;96763.83;104953;1280;100357;-77
2023/07/12 11:06:08;;;;;;;10.10;8.30;;;;;;;25.11;56.90;96756.48;104632;1279;99276;-77
2023/07/12 11:08:43;;;;;;;12.00;7.90;;;;;;;25.15;57.56;96746.48;104689;1269;96939;-79
2023/07/12 11:11:50;;;;;;;11.10;8.00;;;;;;;25.12;57.46;96748.98;104299;1272;96726;-76
2023/07/12 11:18:29;;;;;;;13.70;8.10;;;;;;;25.19;57.37;96749.23;104040;1280;102267;-83
2023/07/12 11:21:22;;;;;;;11.20;8.30;;;;;;;25.21;57.94;96754.38;104113;1280;99022;-85
2023/07/12 11:24:37;;;;;;;10.10;8.10;;;;;;;25.22;58.19;96758.05;104178;1275;96439;-84
2023/07/12 11:27:44;;;;;;;9.60;8.40;;;;;;;25.28;58.62;96754.61;104141;1277;95941;-85
2023/07/12 11:30:44;;;;;;;9.30;8.40;;;;;;;25.35;59.22;96757.33;104390;1282;99371;-85
2023/07/12 11:33:44;;;;;;;11.20;8.60;;;;;;;25.39;59.58;96754.92;104859;1271;100611;-84
2023/07/12 11:36:43;;;;;;;10.80;8.40;;;;;;;25.39;59.33;96750.17;105071;1267;99138;-83
2023/07/12 11:39:37;;;;;;;12.20;8.80;;;;;;;25.37;59.13;96757.11;104703;1272;97194;-83
2023/07/12 11:42:30;;;;;;;13.90;8.60;;;;;;;25.33;59.09;96758.66;104574;1271;97099;-84
2023/07/12 11:45:39;;;;;;;10.10;8.20;;;;;;;25.29;59.43;96764.69;104922;1270;99827;-85
2023/07/12 11:48:20;;;;;;;11.50;8.90;;;;;;;25.26;59.96;96766.36;104945;1269;100440;-76
2023/07/12 11:51:16;;;;;;;13.50;8.50;;;;;;;25.22;59.95;96759.02;104682;1272;97632;-76
2023/07/12 11:54:23;;;;;;;11.30;9.40;;;;;;;25.18;60.00;96757.05;105429;1267;96160;-77
2023/07/12 11:57:34;;;;;;;11.50;10.00;;;;;;;25.18;60.64;96758.38;105552;1257;96708;-77
2023/07/12 12:00:25;;;;;;;9.40;8.40;;;;;;;25.17;61.16;96762.39;106541;1257;100112;-77
2023/07/12 12:03:35;;;;;;;10.50;8.70;;;;;;;25.12;60.73;96772.17;105740;1267;100263;-77
2023/07/12 12:06:43;;;;;;;15.40;9.30;;;;;;;25.05;60.04;96784.27;105370;1274;98504;-79
2023/07/12 12:09:25;;;;;;;12.70;8.90;;;;;;;25.01;60.22;96779.06;105358;1264;95857;-77
2023/07/12 12:12:32;;;;;;;12.50;8.90;;;;;;;24.95;59.67;96780.90;105539;1263;97584;-78
2023/07/12 12:15:32;;;;;;;10.70;9.40;;;;;;;24.87;58.85;96785.46;105022;1266;101394;-78
2023/07/12 12:18:44;;;;;;;12.30;9.10;;;;;;;24.78;58.33;96783.51;104306;1270;100791;-76
2023/07/12 12:21:50;;;;;;;10.30;8.60;;;;;;;24.66;57.88;96778.84;104247;1286;98961;-75
2023/07/12 12:24:53;;;;;;;12.20;9.10;;;;;;;24.59;57.91;96779.81;104452;1278;96112;-76
2023/07/12 12:27:59;;;;;;;12.80;9.00;;;;;;;24.55;58.35;96785.92;104607;1276;96872;-75
2023/07/12 12:30:50;;;;;;;9.70;8.70;;;;;;;24.52;58.64;96785.25;104114;1290;99853;-75
2023/07/12 12:34:18;;;;;;;11.40;9.00;;;;;;;24.40;59.13;96781.48;104684;1278;100427;-75
2023/07/12 12:37:37;;;;;;;10.00;8.70;;;;;;;24.29;60.17;96778.81;104668;1270;97886;-76
2023/07/12 12:40:34;;;;;;;11.30;9.20;;;;;;;24.23;60.52;96784.38;104374;1276;96002;-76
2023/07/12 12:43:43;;;;;;;10.80;9.70;;;;;;;24.16;60.86;96793.23;104236;1286;96196;-77
2023/07/12 12:46:31;;;;;;;15.70;9.30;;;;;;;24.10;60.93;96807.06;104290;1280;100260;-79
2023/07/12 13:35:05;;;;;;;11.60;9.80;;;;;;;23.52;70.14;96844.02;104983;1261;642582;-79
2023/07/12 13:38:32;;;;;;;11.40;8.60;;;;;;;24.19;71.10;96840.04;102564;1248;5419447;-83
2023/07/12 13:41:38;;;;;;;12.50;8.50;;;;;;;24.54;71.07;96842.14;105862;1271;99084;-79
2023/07/12 13:44:20;;;;;;;9.90;8.20;;;;;;;24.88;70.29;96839.02;105280;1264;100354;-80
2023/07/12 13:47:07;;;;;;;;;;;;;;;25.16;70.22;96833.89;105275;1273;99881;-78
2023/07/12 13:50:14;;;;;;;10.50;7.90;;;;;;;25.24;68.62;96829.17;105552;1263;96531;-74
2023/07/12 13:53:21;;;;;;;8.90;6.80;;;;;;;25.33;67.92;96827.09;105035;1267;95738;-75
2023/07/12 13:56:28;;;;;;;6.60;5.90;;;;;;;25.45;68.09;96828.52;105054;1270;98560;-73
2023/07/12 13:59:21;;;;;;;7.00;6.30;;;;;;;25.64;67.56;96820.93;104572;1273;100249;-72
2023/07/12 14:02:07;;;;;;;;;;;;;;;25.83;68.03;96809.95;104831;1283;98706;-73
2023/07/12 14:10:46;;;;;;;10.20;6.40;;;;;;;26.48;66.64;96789.05;104241;1280;101548;-72
2023/07/12 14:19:36;;;;;;;7.20;6.40;;;;;;;26.92;65.40;96780.10;104703;1282;96712;-73
2023/07/12 14:22:31;;;;;;;8.70;5.90;;;;;;;27.12;65.17;96780.23;105112;1270;95986;-73
2023/07/12 14:24:59;;;;;;;8.00;6.70;;;;;;;27.36;64.94;96776.81;105216;1274;99628;-74
2023/07/12 14:27:30;;;;;;;8.40;6.60;;;;;;;27.52;63.94;96774.77;105308;1264;99988;-73
2023/07/12 14:30:17;;;;;;;8.90;6.00;;;;;;;27.69;62.44;96767.38;105551;1260;99853;-73
2023/07/12 14:32:54;;;;;;;9.40;6.80;;;;;;;27.84;61.77;96763.85;105417;1260;95978;-87
2023/07/12 14:35:26;;;;;;;9.90;6.00;;;;;;;27.87;60.99;96756.80;106186;1265;96034;-86
2023/07/12 14:37:56;;;;;;;6.80;5.70;;;;;;;27.87;60.15;96745.09;106201;1259;99854;-87
2023/07/12 14:40:26;;;;;;;8.90;5.40;;;;;;;27.89;59.64;96744.61;105672;1263;100252;-86
2023/07/12 14:43:16;;;;;;;6.10;5.40;;;;;;;28.03;59.58;96745.02;105430;1263;99855;-85
2023/07/12 14:46:23;;;;;;;7.50;5.60;;;;;;;28.26;58.66;96740.05;106329;1254;96821;-74
2023/07/12 14:49:29;;;;;;;6.10;5.30;;;;;;;28.45;57.93;96739.30;105426;1264;96044;-74
2023/07/12 14:52:01;;;;;;;9.00;5.70;;;;;;;28.53;56.49;96736.42;104829;1269;100742;-75
2023/07/12 14:54:47;;;;;;;6.00;5.50;;;;;;;28.65;55.39;96733.73;104884;1274;100240;-75
2023/07/12 14:57:31;;;;;;;7.80;5.80;;;;;;;28.76;54.54;96731.94;105068;1272;99008;-82
2023/07/12 15:00:13;;;;;;;7.30;5.30;;;;;;;28.84;53.72;96739.23;105566;1276;96182;-79
2023/07/12 15:02:53;;;;;;;6.40;5.70;;;;;;;28.90;52.90;96738.18;104665;1276;97126;-80
2023/07/12 15:05:24;;;;;;;7.60;5.60;;;;;;;28.98;52.66;96732.11;106283;1267;99650;-78
2023/07/12 15:08:31;;;;;;;6.10;5.50;;;;;;;29.10;52.34;96732.23;104648;1271;100208;-80
2023/07/12 15:11:22;;;;;;;7.60;5.30;;;;;;;29.13;51.78;96726.55;104634;1283;98919;-79
2023/07/12 15:14:11;;;;;;;5.70;4.90;;;;;;;29.01;51.05;96731.63;104845;1267;96084;-79
2023/07/12 15:16:54;;;;;;;7.40;5.20;;;;;;;28.85;50.75;96737.33;104567;1276;97145;-79
2023/07/12 15:19:41;;;;;;;10.00;5.80;;;;;;;28.84;50.96;96733.73;104500;1271;99997;-80
2023/07/12 15:23:00;;;;;;;6.20;5.50;;;;;;;28.88;51.02;96730.58;104317;1275;100296;-80
2023/07/12 15:26:01;;;;;;;;;;;;;;;28.92;51.49;96731.12;104225;1278;98955;-83
2023/07/12 15:28:41;;;;;;;5.70;4.90;;;;;;;28.92;50.62;96731.09;104579;1272;96185;-79
2023/07/12 15:31:34;;;;;;;7.20;5.40;;;;;;;28.91;50.45;96732.18;105177;1267;95968;-81
2023/07/12 15:34:05;;;;;;;7.20;5.60;;;;;;;28.92;50.22;96737.70;104970;1277;99810;-82
2023/07/12 15:37:02;;;;;;;5.70;5.00;;;;;;;28.94;50.01;96730.25;104850;1267;100179;-81
2023/07/12 15:39:47;;;;;;;5.80;4.90;;;;;;;28.89;49.62;96723.22;104922;1280;98888;-83
2023/07/12 15:42:37;;;;;;;7.30;4.70;;;;;;;28.84;49.71;96725.05;105037;1268;96057;-78
2023/07/12 15:45:24;;;;;;;6.60;5.10;;;;;;;28.88;49.12;96725.48;104931;1270;96057;-79
2023/07/12 15:48:01;;;;;;;6.30;5.20;;;;;;;28.92;48.43;96720.17;104797;1269;100609;-82
2023/07/12 15:50:27;;;;;;;7.90;5.70;;;;;;;28.99;48.25;96717.77;104780;1280;100588;-86
2023/07/12 15:53:16;;;;;;;7.30;5.60;;;;;;;29.05;47.87;96719.48;104767;1270;96192;-85
2023/07/12 15:55:51;;;;;;;7.60;5.10;;;;;;;29.11;47.52;96718.06;105348;1264;95899;-86
2023/07/12 15:58:38;;;;;;;7.60;5.70;;;;;;;29.14;47.33;96717.70;105245;1261;95971;-85
2023/07/12 16:01:16;;;;;;;6.70;5.30;;;;;;;29.14;47.10;96715.23;105316;1263;99317;-70
2023/07/12 16:04:15;;;;;;;8.90;5.50;;;;;;;29.12;47.52;96715.48;106320;1252;100000;-77
2023/07/12 16:07:12;;;;;;;6.20;5.60;;;;;;;29.08;47.57;96714.24;106831;1250;98891;-70
2023/07/12 16:09:40;;;;;;;6.80;5.60;;;;;;;28.99;47.25;96712.37;107029;1248;96102;-71
2023/07/12 16:12:18;;;;;;;9.10;5.70;;;;;;;28.90;47.05;96705.33;106822;1248;95852;-72
2023/07/12 16:14:44;;;;;;;7.40;5.20;;;;;;;28.78;46.96;96702.52;107152;1251;99596;-74
2023/07/12 16:17:24;;;;;;;6.30;5.70;;;;;;;28.68;47.02;96704.63;107090;1250;96368;-89
2023/07/12 16:20:00;;;;;;;6.30;5.70;;;;;;;28.62;47.58;96704.66;106912;1251;99042;-84
2023/07/12 16:22:50;;;;;;;6.80;5.20;;;;;;;28.56;47.74;96711.70;106946;1251;96128;-81
2023/07/12 16:25:19;;;;;;;7.10;5.40;;;;;;;28.50;47.52;96715.66;107130;1246;97080;-82
2023/07/12 16:27:47;;;;;;;5.80;5.20;;;;;;;28.45;47.88;96711.95;106961;1248;100823;-82
2023/07/12 16:30:17;;;;;;;7.40;5.70;;;;;;;28.41;48.41;96711.79;106948;1257;99950;-83
2023/07/12 16:33:00;;;;;;;8.50;5.30;;;;;;;28.36;48.27;96713.59;106966;1250;99530;-82
2023/07/12 16:36:07;;;;;;;8.20;6.00;;;;;;;28.34;47.90;96712.27;107272;1251;95898;-83
2023/07/12 16:38:37;;;;;;;8.30;5.50;;;;;;;28.30;48.55;96723.45;107207;1250;96780;-81
2023/07/12 16:41:28;;;;;;;8.40;5.90;;;;;;;28.15;49.12;96726.77;106906;1252;99840;-82
2023/07/12 16:44:09;;;;;;;8.90;5.20;;;;;;;27.97;48.85;96726.59;106349;1256;101104;-81
2023/07/12 16:47:16;;;;;;;5.90;5.40;;;;;;;27.84;49.67;96720.38;106563;1252;99818;-75
2023/07/12 16:50:23;;;;;;;6.30;5.50;;;;;;;27.68;49.97;96721.66;106029;1255;96819;-73
2023/07/12 16:53:13;;;;;;;6.50;5.50;;;;;;;27.50;51.04;96727.21;105349;1263;96609;-71
2023/07/12 16:56:00;;;;;;;7.70;5.50;;;;;;;27.31;51.87;96739.71;105332;1264;100094;-70
2023/07/12 16:58:29;;;;;;;8.70;5.70;;;;;;;27.14;52.69;96738.15;105267;1267;100285;-71
2023/07/12 17:01:30;;;;;;;8.80;5.80;;;;;;;26.92;53.41;96735.48;104876;1267;99042;-74
2023/07/12 17:04:19;;;;;;;7.70;5.80;;;;;;;26.75;54.17;96742.76;104963;1265;97136;-71
2023/07/12 17:07:19;;;;;;;6.60;5.90;;;;;;;26.60;54.50;96749.07;104837;1272;96067;-71
2023/07/12 17:16:18;;;;;;;7.60;5.80;;;;;;;26.11;56.46;96761.36;104136;1273;99112;-75
2023/07/12 17:22:12;;;;;;;10.30;6.60;;;;;;;25.75;57.24;96768.72;103681;1280;96237;-75
2023/07/12 17:27:44;;;;;;;10.70;6.30;;;;;;;25.35;58.08;96775.40;104217;1272;103227;-73
2023/07/12 17:30:51;;;;;;;8.50;6.60;;;;;;;25.31;58.58;96774.23;104713;1269;98762;-74
2023/07/12 17:37:00;;;;;;;7.60;6.00;;;;;;;25.21;58.80;96774.98;103990;1273;96227;-73
2023/07/12 18:01:02;;;;;;;6.60;6.00;;;;;;;24.34;60.34;96783.39;104494;1270;100826;-73
2023/07/12 18:04:14;;;;;;;8.80;7.00;;;;;;;24.14;60.02;96787.17;104321;1271;95979;-82
2023/07/12 18:07:23;;;;;;;8.50;6.90;;;;;;;23.90;60.46;96786.09;104390;1272;96100;-78
2023/07/12 18:10:44;;;;;;;13.70;7.40;;;;;;;23.84;60.85;96778.73;104496;1272;102605;-78
2023/07/12 18:13:37;;;;;;;11.30;7.30;;;;;;;23.69;61.11;96780.42;105280;1266;101333;-79
2023/07/12 18:16:34;;;;;;;14.20;7.70;;;;;;;23.56;61.56;96785.30;104810;1269;99191;-82
2023/07/12 18:19:31;;;;;;;9.70;7.40;;;;;;;23.46;62.03;96794.13;104728;1280;97893;-81
2023/07/12 18:22:38;;;;;;;11.80;7.10;;;;;;;23.38;62.15;96799.70;104868;1269;98354;-83
2023/07/12 18:25:45;;;;;;;7.70;6.80;;;;;;;23.28;62.19;96796.97;105934;1254;102759;-82
2023/07/12 18:28:53;;;;;;;9.70;6.50;;;;;;;23.15;62.56;96797.23;105435;1260;101077;-83
2023/07/12 18:32:03;;;;;;;9.70;7.00;;;;;;;23.10;62.94;96799.94;105002;1276;99338;-80
2023/07/12 18:51:14;;;;;;;18.70;11.40;;;;;;;22.43;64.46;96811.17;101471;1296;636021;-79
2023/07/12 18:54:22;;;;;;;13.00;10.30;;;;;;;22.42;64.70;96820.94;103435;1276;95888;-80
2023/07/12 18:57:24;;;;;;;16.60;10.40;;;;;;;22.34;64.42;96825.64;103020;1283;97357;-79
2023/07/12 19:00:32;;;;;;;14.40;10.80;;;;;;;22.19;64.56;96819.95;103051;1281;99698;-80
2023/07/12 19:03:49;;;;;;;14.40;9.70;;;;;;;22.07;65.11;96819.31;101963;1290;5413962;-74
2023/07/12 19:19:55;;;;;;;14.50;9.80;;;;;;;21.20;66.34;96827.19;101650;1294;637452;-73
2023/07/12 19:23:03;;;;;;;13.40;9.80;;;;;;;21.07;66.82;96831.39;104692;1267;95872;-71
2023/07/12 19:26:13;;;;;;;12.60;9.20;;;;;;;21.12;67.31;96834.72;103934;1275;95805;-72
2023/07/12 19:29:22;;;;;;;9.70;8.50;;;;;;;21.19;67.58;96834.19;103244;1282;98528;-75
2023/07/12 19:32:30;;;;;;;13.20;8.60;;;;;;;21.23;67.31;96838.81;99046;1300;5407808;-72
2023/07/12 19:35:41;;;;;;;13.10;9.30;;;;;;;21.09;67.13;96837.58;101920;1293;99052;-74
2023/07/12 21:34:16;;;;;;;13.20;10.90;;;;;;;19.17;72.58;96885.79;105451;1263;96147;-80
2023/07/12 21:36:46;;;;;;;14.80;10.80;;;;;;;19.11;72.72;96880.33;108058;1239;102808;-82
2023/07/12 21:39:12;;;;;;;16.50;9.60;;;;;;;19.04;72.97;96880.46;107994;1238;95822;-82
2023/07/12 21:41:38;;;;;;;13.10;10.30;;;;;;;19.02;73.32;96872.98;107953;1235;95876;-80
2023/07/12 21:44:06;;;;;;;14.60;10.50;;;;;;;19.04;73.56;96879.33;107986;1247;96215;-81
2023/07/12 21:46:33;;;;;;;18.20;10.50;;;;;;;19.07;73.57;96878.27;107450;1242;101773;-83
2023/07/12 21:48:59;;;;;;;14.80;10.60;;;;;;;18.99;73.48;96881.64;107997;1249;95994;-83
2023/07/12 21:51:25;;;;;;;13.50;10.40;;;;;;;18.90;73.57;96886.20;107963;1235;95804;-82
2023/07/12 21:53:53;;;;;;;15.70;10.20;;;;;;;18.88;73.82;96888.00;107902;1238;96183;-83
2023/07/12 21:56:20;;;;;;;13.30;10.30;;;;;;;18.92;73.90;96896.86;107965;1239;109464;-80
2023/07/12 21:58:47;;;;;;;13.40;10.30;;;;;;;18.95;74.05;96903.52;108093;1243;108716;-81